sensor_id;sensor_type;location;lat;lon;timestamp;P1;durP1;ratioP1;P2;durP2;ratioP2
71763;SDS011;59602;52.142;5.408;2023-03-31T00:01:06;7.93;;;0.70;;
71763;SDS011;59602;52.142;5.408;2023-03-31T00:03:33;11.10;;;0.90;;
71763;SDS011;59602;52.142;5.408;2023-03-31T00:06:05;12.00;;;1.00;;
71763;SDS011;59602;52.142;5.408;2023-03-31T00:08:33;8.68;;;0.98;;
71763;SDS011;59602;52.142;5.408;2023-03-31T00:11:04;5.63;;;1.00;;
71763;SDS011;59602;52.142;5.408;2023-03-31T00:13:36;7.68;;;0.73;;
71763;SDS011;59602;52.142;5.408;2023-03-31T00:16:04;4.93;;;0.90;;
71763;SDS011;59602;52.142;5.408;2023-03-31T00:18:34;9.55;;;0.68;;
71763;SDS011;59602;52.142;5.408;2023-03-31T00:21:09;7.45;;;0.93;;
71763;SDS011;59602;52.142;5.408;2023-03-31T00:26:20;5.65;;;0.52;;
71763;SDS011;59602;52.142;5.408;2023-03-31T00:28:58;6.47;;;0.60;;
71763;SDS011;59602;52.142;5.408;2023-03-31T00:31:27;4.35;;;0.80;;
71763;SDS011;59602;52.142;5.408;2023-03-31T00:33:54;6.43;;;0.93;;
71763;SDS011;59602;52.142;5.408;2023-03-31T00:36:28;8.02;;;1.00;;
71763;SDS011;59602;52.142;5.408;2023-03-31T00:39:13;6.03;;;0.75;;
71763;SDS011;59602;52.142;5.408;2023-03-31T00:41:41;4.93;;;0.60;;
71763;SDS011;59602;52.142;5.408;2023-03-31T00:44:14;7.88;;;0.57;;
71763;SDS011;59602;52.142;5.408;2023-03-31T00:46:49;6.53;;;0.60;;
71763;SDS011;59602;52.142;5.408;2023-03-31T00:49:28;7.40;;;0.55;;
71763;SDS011;59602;52.142;5.408;2023-03-31T00:52:02;7.85;;;0.90;;
71763;SDS011;59602;52.142;5.408;2023-03-31T00:54:35;8.37;;;0.60;;
71763;SDS011;59602;52.142;5.408;2023-03-31T00:57:03;5.13;;;0.65;;
71763;SDS011;59602;52.142;5.408;2023-03-31T00:59:33;4.78;;;0.40;;
71763;SDS011;59602;52.142;5.408;2023-03-31T01:02:17;6.55;;;0.40;;
71763;SDS011;59602;52.142;5.408;2023-03-31T01:04:52;5.80;;;0.40;;
71763;SDS011;59602;52.142;5.408;2023-03-31T01:07:23;8.27;;;0.60;;
71763;SDS011;59602;52.142;5.408;2023-03-31T01:09:57;5.20;;;0.50;;
71763;SDS011;59602;52.142;5.408;2023-03-31T01:12:25;8.73;;;0.55;;
71763;SDS011;59602;52.142;5.408;2023-03-31T01:15:04;4.18;;;0.45;;
71763;SDS011;59602;52.142;5.408;2023-03-31T01:17:31;3.97;;;0.38;;
71763;SDS011;59602;52.142;5.408;2023-03-31T01:25:36;5.85;;;0.63;;
71763;SDS011;59602;52.142;5.408;2023-03-31T01:28:25;4.88;;;0.50;;
71763;SDS011;59602;52.142;5.408;2023-03-31T01:33:55;3.03;;;0.30;;
71763;SDS011;59602;52.142;5.408;2023-03-31T01:36:43;2.90;;;0.40;;
71763;SDS011;59602;52.142;5.408;2023-03-31T01:42:30;3.55;;;0.40;;
71763;SDS011;59602;52.142;5.408;2023-03-31T01:45:46;5.13;;;0.60;;
71763;SDS011;59602;52.142;5.408;2023-03-31T01:51:15;7.22;;;0.57;;
71763;SDS011;59602;52.142;5.408;2023-03-31T01:53:54;9.57;;;0.88;;
71763;SDS011;59602;52.142;5.408;2023-03-31T01:59:22;6.20;;;0.65;;
71763;SDS011;59602;52.142;5.408;2023-03-31T02:01:56;4.87;;;0.50;;
71763;SDS011;59602;52.142;5.408;2023-03-31T02:04:35;4.45;;;0.65;;
71763;SDS011;59602;52.142;5.408;2023-03-31T02:07:11;3.95;;;0.60;;
71763;SDS011;59602;52.142;5.408;2023-03-31T02:09:45;6.03;;;0.80;;
71763;SDS011;59602;52.142;5.408;2023-03-31T02:12:15;8.13;;;0.60;;
71763;SDS011;59602;52.142;5.408;2023-03-31T02:14:47;6.50;;;0.70;;
71763;SDS011;59602;52.142;5.408;2023-03-31T02:17:18;4.22;;;0.70;;
71763;SDS011;59602;52.142;5.408;2023-03-31T02:19:48;4.97;;;0.70;;
71763;SDS011;59602;52.142;5.408;2023-03-31T02:22:18;4.82;;;0.90;;
71763;SDS011;59602;52.142;5.408;2023-03-31T02:24:49;3.75;;;0.70;;
71763;SDS011;59602;52.142;5.408;2023-03-31T02:27:20;6.33;;;0.80;;
71763;SDS011;59602;52.142;5.408;2023-03-31T02:29:50;5.05;;;0.73;;
71763;SDS011;59602;52.142;5.408;2023-03-31T02:32:21;5.55;;;0.95;;
71763;SDS011;59602;52.142;5.408;2023-03-31T02:35:04;6.70;;;1.15;;
71763;SDS011;59602;52.142;5.408;2023-03-31T02:37:33;5.90;;;0.70;;
71763;SDS011;59602;52.142;5.408;2023-03-31T02:40:09;6.27;;;0.80;;
71763;SDS011;59602;52.142;5.408;2023-03-31T02:42:44;4.35;;;0.70;;
71763;SDS011;59602;52.142;5.408;2023-03-31T02:48:09;7.13;;;1.13;;
71763;SDS011;59602;52.142;5.408;2023-03-31T02:53:39;5.10;;;0.77;;
71763;SDS011;59602;52.142;5.408;2023-03-31T02:59:27;4.55;;;0.60;;
71763;SDS011;59602;52.142;5.408;2023-03-31T03:02:18;9.70;;;1.13;;
71763;SDS011;59602;52.142;5.408;2023-03-31T03:07:55;6.87;;;1.50;;
71763;SDS011;59602;52.142;5.408;2023-03-31T03:10:27;7.85;;;1.00;;
71763;SDS011;59602;52.142;5.408;2023-03-31T03:15:35;4.88;;;0.60;;
71763;SDS011;59602;52.142;5.408;2023-03-31T03:18:08;3.90;;;0.55;;
71763;SDS011;59602;52.142;5.408;2023-03-31T03:20:41;7.37;;;0.43;;
71763;SDS011;59602;52.142;5.408;2023-03-31T03:23:08;4.63;;;0.57;;
71763;SDS011;59602;52.142;5.408;2023-03-31T03:25:47;4.47;;;0.50;;
71763;SDS011;59602;52.142;5.408;2023-03-31T03:28:14;6.78;;;0.68;;
71763;SDS011;59602;52.142;5.408;2023-03-31T03:30:40;6.47;;;0.80;;
71763;SDS011;59602;52.142;5.408;2023-03-31T03:33:07;4.60;;;0.37;;
71763;SDS011;59602;52.142;5.408;2023-03-31T03:35:35;5.82;;;0.85;;
71763;SDS011;59602;52.142;5.408;2023-03-31T03:38:01;3.80;;;0.38;;
71763;SDS011;59602;52.142;5.408;2023-03-31T03:40:28;5.80;;;0.50;;
71763;SDS011;59602;52.142;5.408;2023-03-31T03:42:55;3.53;;;0.60;;
71763;SDS011;59602;52.142;5.408;2023-03-31T03:45:21;5.90;;;0.63;;
71763;SDS011;59602;52.142;5.408;2023-03-31T03:47:48;4.60;;;0.32;;
71763;SDS011;59602;52.142;5.408;2023-03-31T03:50:15;6.13;;;0.50;;
71763;SDS011;59602;52.142;5.408;2023-03-31T03:52:49;5.32;;;0.40;;
71763;SDS011;59602;52.142;5.408;2023-03-31T03:55:16;6.45;;;0.32;;
71763;SDS011;59602;52.142;5.408;2023-03-31T03:57:43;6.37;;;0.60;;
71763;SDS011;59602;52.142;5.408;2023-03-31T04:00:09;7.50;;;0.82;;
71763;SDS011;59602;52.142;5.408;2023-03-31T04:02:38;6.25;;;0.52;;
71763;SDS011;59602;52.142;5.408;2023-03-31T04:05:06;7.28;;;0.70;;
71763;SDS011;59602;52.142;5.408;2023-03-31T04:07:33;5.90;;;0.70;;
71763;SDS011;59602;52.142;5.408;2023-03-31T04:09:59;5.50;;;0.60;;
71763;SDS011;59602;52.142;5.408;2023-03-31T04:12:26;4.43;;;0.32;;
71763;SDS011;59602;52.142;5.408;2023-03-31T04:14:53;6.13;;;0.43;;
71763;SDS011;59602;52.142;5.408;2023-03-31T04:17:19;5.65;;;0.40;;
71763;SDS011;59602;52.142;5.408;2023-03-31T04:20:05;3.95;;;0.30;;
71763;SDS011;59602;52.142;5.408;2023-03-31T04:22:35;3.33;;;0.37;;
71763;SDS011;59602;52.142;5.408;2023-03-31T04:25:07;2.70;;;0.28;;
71763;SDS011;59602;52.142;5.408;2023-03-31T04:27:41;4.68;;;0.30;;
71763;SDS011;59602;52.142;5.408;2023-03-31T04:30:13;4.10;;;0.40;;
71763;SDS011;59602;52.142;5.408;2023-03-31T04:32:53;2.85;;;0.30;;
71763;SDS011;59602;52.142;5.408;2023-03-31T04:35:21;2.83;;;0.57;;
71763;SDS011;59602;52.142;5.408;2023-03-31T04:37:58;4.35;;;0.20;;
71763;SDS011;59602;52.142;5.408;2023-03-31T04:40:25;1.40;;;0.35;;
71763;SDS011;59602;52.142;5.408;2023-03-31T04:42:52;2.00;;;0.20;;
71763;SDS011;59602;52.142;5.408;2023-03-31T04:45:19;4.60;;;0.20;;
71763;SDS011;59602;52.142;5.408;2023-03-31T04:47:45;3.17;;;0.20;;
71763;SDS011;59602;52.142;5.408;2023-03-31T04:50:12;5.68;;;0.30;;
71763;SDS011;59602;52.142;5.408;2023-03-31T04:52:42;2.42;;;0.25;;
71763;SDS011;59602;52.142;5.408;2023-03-31T04:55:09;3.05;;;0.47;;
71763;SDS011;59602;52.142;5.408;2023-03-31T04:57:36;3.83;;;0.30;;
71763;SDS011;59602;52.142;5.408;2023-03-31T05:00:03;4.90;;;0.40;;
71763;SDS011;59602;52.142;5.408;2023-03-31T05:02:39;4.47;;;0.98;;
71763;SDS011;59602;52.142;5.408;2023-03-31T05:05:06;5.40;;;0.40;;
71763;SDS011;59602;52.142;5.408;2023-03-31T05:07:33;7.15;;;0.73;;
71763;SDS011;59602;52.142;5.408;2023-03-31T05:10:00;5.70;;;0.55;;
71763;SDS011;59602;52.142;5.408;2023-03-31T05:12:26;2.87;;;0.60;;
71763;SDS011;59602;52.142;5.408;2023-03-31T05:14:53;5.68;;;1.00;;
71763;SDS011;59602;52.142;5.408;2023-03-31T05:17:20;3.78;;;0.68;;
71763;SDS011;59602;52.142;5.408;2023-03-31T05:19:48;4.53;;;0.60;;
71763;SDS011;59602;52.142;5.408;2023-03-31T05:22:15;4.03;;;0.73;;
71763;SDS011;59602;52.142;5.408;2023-03-31T05:24:45;5.33;;;0.63;;
71763;SDS011;59602;52.142;5.408;2023-03-31T05:27:12;3.63;;;0.63;;
71763;SDS011;59602;52.142;5.408;2023-03-31T05:29:39;4.20;;;0.40;;
71763;SDS011;59602;52.142;5.408;2023-03-31T05:32:06;6.07;;;0.60;;
71763;SDS011;59602;52.142;5.408;2023-03-31T05:34:33;4.25;;;0.47;;
71763;SDS011;59602;52.142;5.408;2023-03-31T05:36:59;4.03;;;0.70;;
71763;SDS011;59602;52.142;5.408;2023-03-31T05:39:26;7.13;;;0.93;;
71763;SDS011;59602;52.142;5.408;2023-03-31T05:41:58;3.08;;;0.43;;
71763;SDS011;59602;52.142;5.408;2023-03-31T05:44:25;3.13;;;0.40;;
71763;SDS011;59602;52.142;5.408;2023-03-31T05:46:53;3.42;;;0.40;;
71763;SDS011;59602;52.142;5.408;2023-03-31T05:49:20;4.90;;;0.97;;
71763;SDS011;59602;52.142;5.408;2023-03-31T05:51:46;5.03;;;0.90;;
71763;SDS011;59602;52.142;5.408;2023-03-31T05:54:13;5.05;;;0.50;;
71763;SDS011;59602;52.142;5.408;2023-03-31T05:56:40;3.80;;;0.45;;
71763;SDS011;59602;52.142;5.408;2023-03-31T05:59:06;6.28;;;0.75;;
71763;SDS011;59602;52.142;5.408;2023-03-31T06:01:33;4.93;;;0.40;;
71763;SDS011;59602;52.142;5.408;2023-03-31T06:04:00;3.97;;;0.30;;
71763;SDS011;59602;52.142;5.408;2023-03-31T06:06:27;3.45;;;0.40;;
71763;SDS011;59602;52.142;5.408;2023-03-31T06:08:53;3.95;;;0.40;;
71763;SDS011;59602;52.142;5.408;2023-03-31T06:11:20;4.35;;;0.30;;
71763;SDS011;59602;52.142;5.408;2023-03-31T06:13:48;5.13;;;0.43;;
71763;SDS011;59602;52.142;5.408;2023-03-31T06:16:15;3.15;;;0.20;;
71763;SDS011;59602;52.142;5.408;2023-03-31T06:18:44;3.63;;;0.43;;
71763;SDS011;59602;52.142;5.408;2023-03-31T06:21:11;3.38;;;0.60;;
71763;SDS011;59602;52.142;5.408;2023-03-31T06:23:39;3.03;;;0.40;;
71763;SDS011;59602;52.142;5.408;2023-03-31T06:26:07;4.83;;;0.30;;
71763;SDS011;59602;52.142;5.408;2023-03-31T06:28:34;4.10;;;0.35;;
71763;SDS011;59602;52.142;5.408;2023-03-31T06:31:02;3.58;;;0.50;;
71763;SDS011;59602;52.142;5.408;2023-03-31T06:33:46;3.25;;;0.20;;
71763;SDS011;59602;52.142;5.408;2023-03-31T06:36:14;3.03;;;0.32;;
71763;SDS011;59602;52.142;5.408;2023-03-31T06:38:43;4.83;;;0.33;;
71763;SDS011;59602;52.142;5.408;2023-03-31T06:41:10;1.92;;;0.20;;
71763;SDS011;59602;52.142;5.408;2023-03-31T06:43:38;1.83;;;0.10;;
71763;SDS011;59602;52.142;5.408;2023-03-31T06:46:05;2.08;;;0.32;;
71763;SDS011;59602;52.142;5.408;2023-03-31T06:48:33;2.30;;;0.20;;
71763;SDS011;59602;52.142;5.408;2023-03-31T06:51:00;2.20;;;0.30;;
71763;SDS011;59602;52.142;5.408;2023-03-31T06:53:29;2.90;;;0.30;;
71763;SDS011;59602;52.142;5.408;2023-03-31T06:55:56;3.42;;;0.30;;
71763;SDS011;59602;52.142;5.408;2023-03-31T06:58:23;3.20;;;0.28;;
71763;SDS011;59602;52.142;5.408;2023-03-31T07:00:49;6.43;;;0.30;;
71763;SDS011;59602;52.142;5.408;2023-03-31T07:03:18;3.23;;;0.20;;
71763;SDS011;59602;52.142;5.408;2023-03-31T07:05:48;2.03;;;0.10;;
71763;SDS011;59602;52.142;5.408;2023-03-31T07:08:15;3.03;;;0.25;;
71763;SDS011;59602;52.142;5.408;2023-03-31T07:10:43;2.92;;;0.20;;
71763;SDS011;59602;52.142;5.408;2023-03-31T07:13:17;1.77;;;0.17;;
71763;SDS011;59602;52.142;5.408;2023-03-31T07:15:46;2.13;;;0.10;;
71763;SDS011;59602;52.142;5.408;2023-03-31T07:18:20;3.60;;;0.20;;
71763;SDS011;59602;52.142;5.408;2023-03-31T07:20:51;6.80;;;0.30;;
71763;SDS011;59602;52.142;5.408;2023-03-31T07:23:18;2.22;;;0.10;;
71763;SDS011;59602;52.142;5.408;2023-03-31T07:25:46;2.28;;;0.15;;
71763;SDS011;59602;52.142;5.408;2023-03-31T07:28:13;1.97;;;0.10;;
71763;SDS011;59602;52.142;5.408;2023-03-31T07:30:40;3.53;;;0.20;;
71763;SDS011;59602;52.142;5.408;2023-03-31T07:33:07;2.33;;;0.10;;
71763;SDS011;59602;52.142;5.408;2023-03-31T07:35:38;2.92;;;0.22;;
71763;SDS011;59602;52.142;5.408;2023-03-31T07:38:33;2.25;;;0.10;;
71763;SDS011;59602;52.142;5.408;2023-03-31T07:41:00;2.87;;;0.30;;
71763;SDS011;59602;52.142;5.408;2023-03-31T07:43:34;2.78;;;0.20;;
71763;SDS011;59602;52.142;5.408;2023-03-31T07:46:01;3.15;;;0.20;;
71763;SDS011;59602;52.142;5.408;2023-03-31T07:48:27;1.38;;;0.10;;
71763;SDS011;59602;52.142;5.408;2023-03-31T07:51:02;3.35;;;0.10;;
71763;SDS011;59602;52.142;5.408;2023-03-31T07:53:29;1.70;;;0.20;;
71763;SDS011;59602;52.142;5.408;2023-03-31T07:55:56;3.05;;;0.30;;
71763;SDS011;59602;52.142;5.408;2023-03-31T07:58:22;1.92;;;0.10;;
71763;SDS011;59602;52.142;5.408;2023-03-31T08:00:49;3.08;;;0.25;;
71763;SDS011;59602;52.142;5.408;2023-03-31T08:03:15;2.80;;;0.47;;
71763;SDS011;59602;52.142;5.408;2023-03-31T08:05:42;1.93;;;0.10;;
71763;SDS011;59602;52.142;5.408;2023-03-31T08:08:09;2.80;;;0.30;;
71763;SDS011;59602;52.142;5.408;2023-03-31T08:10:36;3.00;;;0.20;;
71763;SDS011;59602;52.142;5.408;2023-03-31T08:13:02;3.17;;;0.30;;
71763;SDS011;59602;52.142;5.408;2023-03-31T08:15:29;3.22;;;0.20;;
71763;SDS011;59602;52.142;5.408;2023-03-31T08:17:57;2.97;;;0.40;;
71763;SDS011;59602;52.142;5.408;2023-03-31T08:20:24;2.75;;;0.32;;
71763;SDS011;59602;52.142;5.408;2023-03-31T08:22:51;2.70;;;0.20;;
71763;SDS011;59602;52.142;5.408;2023-03-31T08:25:17;3.03;;;0.45;;
71763;SDS011;59602;52.142;5.408;2023-03-31T08:27:45;2.15;;;0.20;;
71763;SDS011;59602;52.142;5.408;2023-03-31T08:30:16;2.37;;;0.20;;
71763;SDS011;59602;52.142;5.408;2023-03-31T08:32:44;3.10;;;0.22;;
71763;SDS011;59602;52.142;5.408;2023-03-31T08:35:14;1.35;;;0.20;;
71763;SDS011;59602;52.142;5.408;2023-03-31T08:37:47;3.08;;;0.40;;
71763;SDS011;59602;52.142;5.408;2023-03-31T08:40:20;4.57;;;0.20;;
71763;SDS011;59602;52.142;5.408;2023-03-31T08:42:50;3.20;;;0.23;;
71763;SDS011;59602;52.142;5.408;2023-03-31T08:45:22;2.63;;;0.30;;
71763;SDS011;59602;52.142;5.408;2023-03-31T08:47:54;4.93;;;0.30;;
71763;SDS011;59602;52.142;5.408;2023-03-31T08:50:33;1.77;;;0.20;;
71763;SDS011;59602;52.142;5.408;2023-03-31T08:53:28;3.70;;;0.40;;
71763;SDS011;59602;52.142;5.408;2023-03-31T08:56:00;6.33;;;0.40;;
71763;SDS011;59602;52.142;5.408;2023-03-31T08:58:35;3.22;;;0.40;;
71763;SDS011;59602;52.142;5.408;2023-03-31T09:01:11;5.50;;;0.57;;
71763;SDS011;59602;52.142;5.408;2023-03-31T09:04:01;3.33;;;0.50;;
71763;SDS011;59602;52.142;5.408;2023-03-31T09:06:35;5.18;;;0.52;;
71763;SDS011;59602;52.142;5.408;2023-03-31T09:09:09;9.03;;;1.10;;
71763;SDS011;59602;52.142;5.408;2023-03-31T09:11:40;6.53;;;0.60;;
71763;SDS011;59602;52.142;5.408;2023-03-31T09:14:17;6.43;;;0.80;;
71763;SDS011;59602;52.142;5.408;2023-03-31T09:17:06;7.30;;;0.80;;
71763;SDS011;59602;52.142;5.408;2023-03-31T09:19:53;6.85;;;0.93;;
71763;SDS011;59602;52.142;5.408;2023-03-31T09:22:26;9.67;;;1.33;;
71763;SDS011;59602;52.142;5.408;2023-03-31T09:27:26;7.97;;;1.13;;
71763;SDS011;59602;52.142;5.408;2023-03-31T09:29:58;8.00;;;0.80;;
71763;SDS011;59602;52.142;5.408;2023-03-31T09:32:35;5.55;;;0.90;;
71763;SDS011;59602;52.142;5.408;2023-03-31T09:35:17;9.00;;;1.40;;
71763;SDS011;59602;52.142;5.408;2023-03-31T09:37:47;12.93;;;1.02;;
71763;SDS011;59602;52.142;5.408;2023-03-31T09:40:16;6.43;;;0.85;;
71763;SDS011;59602;52.142;5.408;2023-03-31T09:42:46;8.15;;;1.20;;
71763;SDS011;59602;52.142;5.408;2023-03-31T09:45:17;8.93;;;1.10;;
71763;SDS011;59602;52.142;5.408;2023-03-31T09:47:46;8.80;;;0.70;;
71763;SDS011;59602;52.142;5.408;2023-03-31T09:50:17;7.07;;;0.68;;
71763;SDS011;59602;52.142;5.408;2023-03-31T09:52:46;7.07;;;0.98;;
71763;SDS011;59602;52.142;5.408;2023-03-31T09:55:20;9.43;;;1.70;;
71763;SDS011;59602;52.142;5.408;2023-03-31T09:58:05;7.85;;;1.20;;
71763;SDS011;59602;52.142;5.408;2023-03-31T10:00:33;8.27;;;1.00;;
71763;SDS011;59602;52.142;5.408;2023-03-31T10:03:00;5.50;;;0.80;;
71763;SDS011;59602;52.142;5.408;2023-03-31T10:10:37;7.60;;;0.88;;
71763;SDS011;59602;52.142;5.408;2023-03-31T10:13:07;11.50;;;1.03;;
71763;SDS011;59602;52.142;5.408;2023-03-31T10:15:36;9.43;;;1.02;;
71763;SDS011;59602;52.142;5.408;2023-03-31T10:18:12;8.70;;;0.80;;
71763;SDS011;59602;52.142;5.408;2023-03-31T10:20:43;10.95;;;0.90;;
71763;SDS011;59602;52.142;5.408;2023-03-31T10:23:16;7.63;;;0.70;;
71763;SDS011;59602;52.142;5.408;2023-03-31T10:25:43;10.50;;;1.60;;
71763;SDS011;59602;52.142;5.408;2023-03-31T10:28:16;7.32;;;0.90;;
71763;SDS011;59602;52.142;5.408;2023-03-31T10:30:48;8.20;;;0.60;;
71763;SDS011;59602;52.142;5.408;2023-03-31T10:33:18;7.05;;;0.60;;
71763;SDS011;59602;52.142;5.408;2023-03-31T10:35:49;9.18;;;0.90;;
71763;SDS011;59602;52.142;5.408;2023-03-31T10:38:25;7.90;;;1.03;;
71763;SDS011;59602;52.142;5.408;2023-03-31T10:40:56;7.65;;;0.88;;
71763;SDS011;59602;52.142;5.408;2023-03-31T10:46:03;6.70;;;0.63;;
71763;SDS011;59602;52.142;5.408;2023-03-31T10:48:32;7.40;;;0.80;;
71763;SDS011;59602;52.142;5.408;2023-03-31T10:51:03;5.23;;;0.50;;
71763;SDS011;59602;52.142;5.408;2023-03-31T10:53:41;8.98;;;0.73;;
71763;SDS011;59602;52.142;5.408;2023-03-31T11:03:58;7.80;;;1.10;;
71763;SDS011;59602;52.142;5.408;2023-03-31T11:06:54;6.28;;;0.50;;
71763;SDS011;59602;52.142;5.408;2023-03-31T11:12:07;8.40;;;0.70;;
71763;SDS011;59602;52.142;5.408;2023-03-31T11:17:22;4.50;;;0.40;;
71763;SDS011;59602;52.142;5.408;2023-03-31T11:19:54;8.80;;;0.60;;
71763;SDS011;59602;52.142;5.408;2023-03-31T11:27:47;7.43;;;0.50;;
71763;SDS011;59602;52.142;5.408;2023-03-31T11:30:31;3.70;;;0.67;;
71763;SDS011;59602;52.142;5.408;2023-03-31T11:33:07;8.38;;;0.60;;
71763;SDS011;59602;52.142;5.408;2023-03-31T11:38:46;5.63;;;0.50;;
71763;SDS011;59602;52.142;5.408;2023-03-31T11:41:31;5.35;;;0.47;;
71763;SDS011;59602;52.142;5.408;2023-03-31T11:44:03;8.20;;;0.50;;
71763;SDS011;59602;52.142;5.408;2023-03-31T11:46:39;5.82;;;0.75;;
71763;SDS011;59602;52.142;5.408;2023-03-31T11:49:27;3.88;;;0.30;;
71763;SDS011;59602;52.142;5.408;2023-03-31T11:52:02;7.72;;;0.80;;
71763;SDS011;59602;52.142;5.408;2023-03-31T11:54:39;5.15;;;0.73;;
71763;SDS011;59602;52.142;5.408;2023-03-31T11:57:14;5.13;;;0.40;;
71763;SDS011;59602;52.142;5.408;2023-03-31T11:59:53;8.93;;;0.73;;
71763;SDS011;59602;52.142;5.408;2023-03-31T12:02:30;5.78;;;0.47;;
71763;SDS011;59602;52.142;5.408;2023-03-31T12:05:11;6.85;;;0.60;;
71763;SDS011;59602;52.142;5.408;2023-03-31T12:07:43;6.82;;;0.55;;
71763;SDS011;59602;52.142;5.408;2023-03-31T12:12:54;9.35;;;0.50;;
71763;SDS011;59602;52.142;5.408;2023-03-31T12:15:30;9.88;;;0.57;;
71763;SDS011;59602;52.142;5.408;2023-03-31T12:18:07;8.70;;;0.60;;
71763;SDS011;59602;52.142;5.408;2023-03-31T12:20:40;7.32;;;0.55;;
71763;SDS011;59602;52.142;5.408;2023-03-31T12:23:14;9.70;;;0.77;;
71763;SDS011;59602;52.142;5.408;2023-03-31T12:25:53;8.70;;;1.00;;
71763;SDS011;59602;52.142;5.408;2023-03-31T12:28:22;10.02;;;0.50;;
71763;SDS011;59602;52.142;5.408;2023-03-31T12:30:52;6.05;;;0.70;;
71763;SDS011;59602;52.142;5.408;2023-03-31T12:33:24;7.00;;;0.55;;
71763;SDS011;59602;52.142;5.408;2023-03-31T12:36:06;8.83;;;1.17;;
71763;SDS011;59602;52.142;5.408;2023-03-31T12:49:32;4.77;;;1.07;;
71763;SDS011;59602;52.142;5.408;2023-03-31T12:52:16;5.68;;;0.40;;
71763;SDS011;59602;52.142;5.408;2023-03-31T12:55:09;5.18;;;0.77;;
71763;SDS011;59602;52.142;5.408;2023-03-31T12:57:49;6.28;;;0.68;;
71763;SDS011;59602;52.142;5.408;2023-03-31T13:00:19;5.53;;;0.50;;
71763;SDS011;59602;52.142;5.408;2023-03-31T13:02:46;4.23;;;0.40;;
71763;SDS011;59602;52.142;5.408;2023-03-31T13:08:03;7.63;;;0.60;;
71763;SDS011;59602;52.142;5.408;2023-03-31T13:10:31;6.57;;;1.17;;
71763;SDS011;59602;52.142;5.408;2023-03-31T13:15:28;7.67;;;0.53;;
71763;SDS011;59602;52.142;5.408;2023-03-31T13:17:58;7.18;;;0.85;;
71763;SDS011;59602;52.142;5.408;2023-03-31T13:23:05;7.28;;;0.85;;
71763;SDS011;59602;52.142;5.408;2023-03-31T13:25:42;5.43;;;0.52;;
71763;SDS011;59602;52.142;5.408;2023-03-31T13:28:16;6.37;;;0.57;;
71763;SDS011;59602;52.142;5.408;2023-03-31T13:31:00;4.60;;;0.70;;
71763;SDS011;59602;52.142;5.408;2023-03-31T13:33:31;8.88;;;1.05;;
71763;SDS011;59602;52.142;5.408;2023-03-31T13:38:38;8.55;;;0.50;;
71763;SDS011;59602;52.142;5.408;2023-03-31T13:44:15;3.80;;;0.30;;
71763;SDS011;59602;52.142;5.408;2023-03-31T13:50:14;5.60;;;0.55;;
71763;SDS011;59602;52.142;5.408;2023-03-31T13:52:51;4.95;;;0.43;;
71763;SDS011;59602;52.142;5.408;2023-03-31T13:55:48;3.83;;;0.30;;
71763;SDS011;59602;52.142;5.408;2023-03-31T14:01:30;6.15;;;0.75;;
71763;SDS011;59602;52.142;5.408;2023-03-31T14:04:27;10.98;;;2.15;;
71763;SDS011;59602;52.142;5.408;2023-03-31T14:07:08;8.25;;;0.95;;
71763;SDS011;59602;52.142;5.408;2023-03-31T14:09:44;4.43;;;1.10;;
71763;SDS011;59602;52.142;5.408;2023-03-31T14:12:19;6.90;;;0.40;;
71763;SDS011;59602;52.142;5.408;2023-03-31T14:14:59;7.63;;;1.00;;
71763;SDS011;59602;52.142;5.408;2023-03-31T14:17:27;4.28;;;0.80;;
71763;SDS011;59602;52.142;5.408;2023-03-31T14:22:46;4.07;;;0.47;;
71763;SDS011;59602;52.142;5.408;2023-03-31T14:28:16;4.22;;;0.32;;
71763;SDS011;59602;52.142;5.408;2023-03-31T14:36:12;4.77;;;0.63;;
71763;SDS011;59602;52.142;5.408;2023-03-31T14:38:47;4.40;;;0.40;;
71763;SDS011;59602;52.142;5.408;2023-03-31T14:41:15;2.78;;;0.40;;
71763;SDS011;59602;52.142;5.408;2023-03-31T14:43:46;4.10;;;0.30;;
71763;SDS011;59602;52.142;5.408;2023-03-31T14:46:20;3.85;;;0.47;;
71763;SDS011;59602;52.142;5.408;2023-03-31T14:48:48;4.30;;;0.57;;
71763;SDS011;59602;52.142;5.408;2023-03-31T14:51:17;4.38;;;0.57;;
71763;SDS011;59602;52.142;5.408;2023-03-31T14:53:56;3.08;;;0.50;;
71763;SDS011;59602;52.142;5.408;2023-03-31T14:56:29;4.45;;;0.40;;
71763;SDS011;59602;52.142;5.408;2023-03-31T14:59:00;4.55;;;0.60;;
71763;SDS011;59602;52.142;5.408;2023-03-31T15:01:28;3.27;;;0.50;;
71763;SDS011;59602;52.142;5.408;2023-03-31T15:04:05;3.15;;;0.80;;
71763;SDS011;59602;52.142;5.408;2023-03-31T15:06:39;4.28;;;0.45;;
71763;SDS011;59602;52.142;5.408;2023-03-31T15:09:09;2.63;;;0.20;;
71763;SDS011;59602;52.142;5.408;2023-03-31T15:11:41;5.63;;;0.70;;
71763;SDS011;59602;52.142;5.408;2023-03-31T15:14:07;5.33;;;0.47;;
71763;SDS011;59602;52.142;5.408;2023-03-31T15:16:41;0.95;;;0.20;;
71763;SDS011;59602;52.142;5.408;2023-03-31T15:19:13;2.78;;;0.30;;
71763;SDS011;59602;52.142;5.408;2023-03-31T15:21:43;5.15;;;0.32;;
71763;SDS011;59602;52.142;5.408;2023-03-31T15:24:12;4.00;;;0.50;;
71763;SDS011;59602;52.142;5.408;2023-03-31T15:26:43;1.93;;;0.20;;
71763;SDS011;59602;52.142;5.408;2023-03-31T15:29:17;2.33;;;0.20;;
71763;SDS011;59602;52.142;5.408;2023-03-31T15:31:44;3.72;;;0.30;;
71763;SDS011;59602;52.142;5.408;2023-03-31T15:34:14;2.38;;;0.20;;
71763;SDS011;59602;52.142;5.408;2023-03-31T15:36:47;1.83;;;0.25;;
71763;SDS011;59602;52.142;5.408;2023-03-31T15:39:14;2.53;;;0.53;;
71763;SDS011;59602;52.142;5.408;2023-03-31T15:41:45;2.92;;;0.30;;
71763;SDS011;59602;52.142;5.408;2023-03-31T15:47:17;4.40;;;0.40;;
71763;SDS011;59602;52.142;5.408;2023-03-31T15:49:51;3.22;;;0.20;;
71763;SDS011;59602;52.142;5.408;2023-03-31T15:52:27;3.83;;;0.30;;
71763;SDS011;59602;52.142;5.408;2023-03-31T15:55:19;2.78;;;0.50;;
71763;SDS011;59602;52.142;5.408;2023-03-31T15:57:49;4.72;;;1.73;;
71763;SDS011;59602;52.142;5.408;2023-03-31T16:03:01;2.72;;;0.77;;
71763;SDS011;59602;52.142;5.408;2023-03-31T16:05:33;4.33;;;0.80;;
71763;SDS011;59602;52.142;5.408;2023-03-31T16:08:21;2.15;;;0.30;;
71763;SDS011;59602;52.142;5.408;2023-03-31T16:10:54;2.90;;;0.60;;
71763;SDS011;59602;52.142;5.408;2023-03-31T16:13:26;2.22;;;0.50;;
71763;SDS011;59602;52.142;5.408;2023-03-31T16:16:00;11.57;;;5.95;;
71763;SDS011;59602;52.142;5.408;2023-03-31T16:18:38;13.23;;;7.53;;
71763;SDS011;59602;52.142;5.408;2023-03-31T16:21:10;8.50;;;4.88;;
71763;SDS011;59602;52.142;5.408;2023-03-31T16:23:40;4.53;;;0.60;;
71763;SDS011;59602;52.142;5.408;2023-03-31T16:26:09;3.80;;;1.42;;
71763;SDS011;59602;52.142;5.408;2023-03-31T16:28:39;3.47;;;1.70;;
71763;SDS011;59602;52.142;5.408;2023-03-31T16:31:26;2.10;;;1.00;;
71763;SDS011;59602;52.142;5.408;2023-03-31T16:33:57;4.53;;;2.45;;
71763;SDS011;59602;52.142;5.408;2023-03-31T16:36:23;8.88;;;6.07;;
71763;SDS011;59602;52.142;5.408;2023-03-31T16:38:50;6.78;;;4.78;;
71763;SDS011;59602;52.142;5.408;2023-03-31T16:41:19;5.45;;;3.78;;
71763;SDS011;59602;52.142;5.408;2023-03-31T16:43:48;3.40;;;1.23;;
71763;SDS011;59602;52.142;5.408;2023-03-31T16:46:19;2.03;;;1.00;;
71763;SDS011;59602;52.142;5.408;2023-03-31T16:48:46;0.95;;;0.60;;
71763;SDS011;59602;52.142;5.408;2023-03-31T16:51:15;1.42;;;0.30;;
71763;SDS011;59602;52.142;5.408;2023-03-31T16:53:43;1.30;;;0.30;;
71763;SDS011;59602;52.142;5.408;2023-03-31T16:56:11;0.70;;;0.30;;
71763;SDS011;59602;52.142;5.408;2023-03-31T16:58:39;1.00;;;0.30;;
71763;SDS011;59602;52.142;5.408;2023-03-31T17:01:08;1.98;;;0.30;;
71763;SDS011;59602;52.142;5.408;2023-03-31T17:03:36;1.27;;;0.30;;
71763;SDS011;59602;52.142;5.408;2023-03-31T17:06:09;1.08;;;0.22;;
71763;SDS011;59602;52.142;5.408;2023-03-31T17:08:39;1.67;;;0.30;;
71763;SDS011;59602;52.142;5.408;2023-03-31T17:11:08;1.73;;;0.40;;
71763;SDS011;59602;52.142;5.408;2023-03-31T17:13:43;1.52;;;0.20;;